createdAt,value
2022-08-19T00:01:55.120Z,6.03
2022-08-19T00:04:24.224Z,5.80
2022-08-19T00:06:50.935Z,5.80
2022-08-19T00:09:18.720Z,5.80
2022-08-19T00:11:46.872Z,6.15
2022-08-19T00:14:14.024Z,5.35
2022-08-19T00:16:41.901Z,6.15
2022-08-19T00:19:08.744Z,5.35
2022-08-19T00:21:39.216Z,5.82
2022-08-19T00:24:05.888Z,5.82
2022-08-19T00:26:32.222Z,6.32
2022-08-19T00:28:58.523Z,6.32
2022-08-19T00:31:26.090Z,6.50
2022-08-19T00:33:52.577Z,6.38
2022-08-19T00:36:18.849Z,5.95
2022-08-19T00:38:45.263Z,6.55
2022-08-19T00:41:13.720Z,5.65
2022-08-19T00:43:41.317Z,5.85
2022-08-19T00:46:07.782Z,5.63
2022-08-19T00:48:34.498Z,6.53
2022-08-19T00:51:01.220Z,6.28
2022-08-19T00:53:29.472Z,6.68
2022-08-19T00:55:57.163Z,6.13
2022-08-19T00:58:25.515Z,6.15
2022-08-19T01:00:51.974Z,6.68
2022-08-19T01:03:20.192Z,7.10
2022-08-19T01:05:47.042Z,7.32
2022-08-19T01:08:15.601Z,8.40
2022-08-19T01:10:44.367Z,8.73
2022-08-19T01:13:11.066Z,8.43
2022-08-19T01:15:45.348Z,9.32
2022-08-19T01:18:12.628Z,7.80
2022-08-19T01:20:39.760Z,6.82
2022-08-19T01:23:06.044Z,7.72
2022-08-19T01:25:34.273Z,8.20
2022-08-19T01:28:10.689Z,8.27
2022-08-19T01:30:37.636Z,7.95
2022-08-19T01:33:06.312Z,9.10
2022-08-19T01:35:33.190Z,9.68
2022-08-19T01:38:06.898Z,8.85
2022-08-19T01:40:34.183Z,8.88
2022-08-19T01:43:00.591Z,9.43
2022-08-19T01:45:29.163Z,8.57
2022-08-19T01:48:02.006Z,9.38
2022-08-19T01:50:29.203Z,9.18
2022-08-19T01:53:02.425Z,10.32
2022-08-19T01:55:33.670Z,9.45
2022-08-19T01:58:02.890Z,9.93
2022-08-19T02:00:30.308Z,10.73
2022-08-19T02:02:56.955Z,9.90
2022-08-19T02:05:23.904Z,9.82
2022-08-19T02:07:50.304Z,8.95
2022-08-19T02:10:19.610Z,9.30
2022-08-19T02:12:46.474Z,10.27
2022-08-19T02:15:14.454Z,10.23
2022-08-19T02:17:41.028Z,9.90
2022-08-19T02:20:07.848Z,9.80
2022-08-19T02:22:34.176Z,10.93
2022-08-19T02:25:00.828Z,10.55
2022-08-19T02:27:27.488Z,9.40
2022-08-19T02:29:53.802Z,9.43
2022-08-19T02:32:20.782Z,9.77
2022-08-19T02:34:48.001Z,8.98
2022-08-19T02:37:35.056Z,9.18
2022-08-19T02:40:02.930Z,10.43
2022-08-19T02:42:29.661Z,9.88
2022-08-19T02:44:56.602Z,9.88
2022-08-19T02:47:22.926Z,9.25
2022-08-19T02:49:50.615Z,9.60
2022-08-19T02:52:17.325Z,9.70
2022-08-19T02:54:43.876Z,8.57
2022-08-19T02:57:10.191Z,9.27
2022-08-19T02:59:36.641Z,9.35
2022-08-19T03:02:03.000Z,9.52
2022-08-19T03:04:30.531Z,9.20
2022-08-19T03:07:00.786Z,8.55
2022-08-19T03:09:33.459Z,9.20
2022-08-19T03:11:59.745Z,9.43
2022-08-19T03:14:26.006Z,8.52
2022-08-19T03:16:52.799Z,9.13
2022-08-19T03:19:19.637Z,10.02
2022-08-19T03:21:46.237Z,9.40
2022-08-19T03:24:12.702Z,9.23
2022-08-19T03:26:40.528Z,9.13
2022-08-19T03:29:06.909Z,9.05
2022-08-19T03:31:45.201Z,10.20
2022-08-19T03:34:21.476Z,9.45
2022-08-19T03:36:47.984Z,9.45
2022-08-19T03:39:14.471Z,9.55
2022-08-19T03:41:45.857Z,9.95
2022-08-19T03:44:18.468Z,10.15
2022-08-19T03:46:46.365Z,9.82
2022-08-19T03:49:14.416Z,9.70
2022-08-19T03:51:41.925Z,9.88
2022-08-19T03:54:09.224Z,9.38
2022-08-19T03:56:39.587Z,10.82
2022-08-19T03:59:07.035Z,10.52
2022-08-19T04:01:35.040Z,10.38
2022-08-19T04:04:02.324Z,9.55
2022-08-19T04:06:31.211Z,9.95
2022-08-19T04:08:58.612Z,10.35
2022-08-19T04:11:45.222Z,9.45
2022-08-19T04:14:19.351Z,9.63
2022-08-19T04:16:47.210Z,10.45
2022-08-19T04:19:14.254Z,9.25
2022-08-19T04:21:40.590Z,10.70
2022-08-19T04:24:07.299Z,9.88
2022-08-19T04:26:35.960Z,9.93
2022-08-19T04:29:04.135Z,9.98
2022-08-19T04:31:31.672Z,10.00
2022-08-19T04:33:59.352Z,9.30
2022-08-19T04:36:27.591Z,9.68
2022-08-19T04:38:55.039Z,9.43
2022-08-19T04:41:39.922Z,9.75
2022-08-19T04:44:06.520Z,9.13
2022-08-19T04:46:40.077Z,9.25
2022-08-19T04:49:13.049Z,10.68
2022-08-19T04:51:41.095Z,10.52
2022-08-19T04:54:07.377Z,10.38
2022-08-19T04:56:33.692Z,9.73
2022-08-19T04:59:03.981Z,10.43
2022-08-19T05:01:30.945Z,9.93
2022-08-19T05:03:57.419Z,9.98
2022-08-19T05:06:23.981Z,10.02
2022-08-19T05:08:50.397Z,9.65
2022-08-19T05:11:26.333Z,10.15
2022-08-19T05:13:53.313Z,9.77
2022-08-19T05:16:21.193Z,9.95
2022-08-19T05:19:06.869Z,10.18
2022-08-19T05:24:19.447Z,9.25
2022-08-19T05:26:47.320Z,10.07
2022-08-19T05:29:14.786Z,10.40
2022-08-19T05:31:41.841Z,10.60
2022-08-19T05:34:08.283Z,10.32
2022-08-19T05:36:47.588Z,11.35
2022-08-19T05:39:16.976Z,11.52
2022-08-19T05:41:45.655Z,13.93
2022-08-19T05:44:12.089Z,15.52
2022-08-19T05:46:39.104Z,16.85
2022-08-19T05:49:08.725Z,20.85
2022-08-19T05:51:35.899Z,19.98
2022-08-19T05:54:02.652Z,20.23
2022-08-19T05:56:31.248Z,23.90
2022-08-19T05:58:58.419Z,26.75
2022-08-19T06:01:26.741Z,27.38
2022-08-19T06:03:53.107Z,27.33
2022-08-19T06:06:20.256Z,25.65
2022-08-19T06:08:51.032Z,27.98
2022-08-19T06:11:20.051Z,26.17
2022-08-19T06:13:48.572Z,28.48
2022-08-19T06:16:21.495Z,28.85
2022-08-19T06:18:47.797Z,28.23
2022-08-19T06:21:14.504Z,28.98
2022-08-19T06:23:41.343Z,29.05
2022-08-19T06:26:12.490Z,28.88
2022-08-19T06:28:43.570Z,28.98
2022-08-19T06:31:10.303Z,30.25
2022-08-19T06:33:37.167Z,28.35
2022-08-19T06:36:03.918Z,27.08
2022-08-19T06:38:30.194Z,28.98
2022-08-19T06:41:07.407Z,28.73
2022-08-19T06:43:34.378Z,27.48
2022-08-19T06:46:02.037Z,29.58
2022-08-19T06:48:28.360Z,27.67
2022-08-19T06:50:55.302Z,27.67
2022-08-19T06:53:21.616Z,28.40
2022-08-19T06:56:03.110Z,28.05
2022-08-19T06:58:35.233Z,26.48
2022-08-19T07:01:08.583Z,28.50
2022-08-19T07:03:37.343Z,28.63
2022-08-19T07:06:07.200Z,27.83
2022-08-19T07:11:10.853Z,27.73
2022-08-19T07:13:37.943Z,28.92
2022-08-19T07:16:08.154Z,31.73
2022-08-19T07:18:35.242Z,29.27
2022-08-19T07:21:06.465Z,30.27
2022-08-19T07:26:17.951Z,30.33
2022-08-19T07:28:46.050Z,30.60
2022-08-19T07:31:22.728Z,30.95
2022-08-19T07:33:53.335Z,30.17
2022-08-19T07:36:23.888Z,32.70
2022-08-19T07:38:52.639Z,32.00
2022-08-19T07:41:20.748Z,30.60
2022-08-19T07:43:47.833Z,32.72
2022-08-19T07:46:14.500Z,32.35
2022-08-19T07:48:45.059Z,32.47
2022-08-19T07:51:11.665Z,31.10
2022-08-19T07:53:40.731Z,30.73
2022-08-19T07:56:07.134Z,30.80
2022-08-19T07:58:38.989Z,29.63
2022-08-19T08:01:05.970Z,29.50
2022-08-19T08:03:51.306Z,29.63
2022-08-19T08:06:36.181Z,28.88
2022-08-19T08:09:12.964Z,26.03
2022-08-19T08:11:49.689Z,26.15
2022-08-19T08:14:28.989Z,24.95
2022-08-19T08:16:56.470Z,24.67
2022-08-19T08:19:26.430Z,26.25
2022-08-19T08:21:53.781Z,27.27
2022-08-19T08:24:21.109Z,27.00
2022-08-19T08:26:52.029Z,25.83
2022-08-19T08:29:20.253Z,23.92
2022-08-19T08:31:47.312Z,24.08
2022-08-19T08:34:19.746Z,22.25
2022-08-19T08:36:47.333Z,23.70
2022-08-19T08:39:15.171Z,22.38
2022-08-19T08:41:45.985Z,23.42
2022-08-19T08:44:17.189Z,23.30
2022-08-19T08:46:52.947Z,22.30
2022-08-19T08:49:39.439Z,23.15
2022-08-19T08:52:31.850Z,21.58
2022-08-19T08:54:59.625Z,19.75
2022-08-19T08:57:37.625Z,21.33
2022-08-19T09:00:15.684Z,21.55
2022-08-19T09:02:43.629Z,21.38
2022-08-19T09:05:11.001Z,21.70
2022-08-19T09:08:05.786Z,20.77
2022-08-19T09:10:44.104Z,19.75
2022-08-19T09:13:17.345Z,20.58
2022-08-19T09:15:45.382Z,19.65
2022-08-19T09:18:15.366Z,19.52
2022-08-19T09:20:45.874Z,19.42
2022-08-19T09:23:12.277Z,18.98
2022-08-19T09:25:40.977Z,20.63
2022-08-19T09:28:15.061Z,20.13
2022-08-19T09:30:49.011Z,19.42
2022-08-19T09:33:16.286Z,20.98
2022-08-19T09:35:49.837Z,20.20
2022-08-19T09:38:19.349Z,20.40
2022-08-19T09:40:45.645Z,19.88
2022-08-19T09:43:13.074Z,20.17
2022-08-19T09:45:40.252Z,18.73
2022-08-19T09:48:07.038Z,18.27
2022-08-19T09:50:35.060Z,19.08
2022-08-19T09:53:01.463Z,19.10
2022-08-19T09:55:32.088Z,18.92
2022-08-19T09:58:01.002Z,17.00
2022-08-19T10:00:27.752Z,16.27
2022-08-19T10:02:54.069Z,18.20
2022-08-19T10:05:39.079Z,18.08
2022-08-19T10:08:13.679Z,16.92
2022-08-19T10:10:44.213Z,17.00
2022-08-19T10:13:13.899Z,14.18
2022-08-19T10:15:47.402Z,15.38
2022-08-19T10:18:14.911Z,14.75
2022-08-19T10:20:42.739Z,13.43
2022-08-19T10:23:09.797Z,15.30
2022-08-19T10:25:36.228Z,15.48
2022-08-19T10:28:05.164Z,15.68
2022-08-19T10:30:37.060Z,14.52
2022-08-19T10:33:08.498Z,14.25
2022-08-19T10:35:42.758Z,15.85
2022-08-19T10:40:49.268Z,15.40
2022-08-19T10:43:15.764Z,15.75
2022-08-19T10:45:52.421Z,14.15
2022-08-19T10:48:19.579Z,15.02
2022-08-19T10:51:04.699Z,14.93
2022-08-19T10:53:31.024Z,14.30
2022-08-19T10:56:15.754Z,15.60
2022-08-19T10:58:42.644Z,15.38
2022-08-19T11:01:10.397Z,15.82
2022-08-19T11:03:36.735Z,16.27
2022-08-19T11:06:05.950Z,15.98
2022-08-19T11:08:32.415Z,15.52
2022-08-19T11:11:01.459Z,15.25
2022-08-19T11:13:29.173Z,16.67
2022-08-19T11:16:02.698Z,15.68
2022-08-19T11:18:31.567Z,14.23
2022-08-19T11:21:06.427Z,16.50
2022-08-19T11:23:32.785Z,16.23
2022-08-19T11:26:00.528Z,15.07
2022-08-19T11:28:26.836Z,15.23
2022-08-19T11:30:53.093Z,13.95
2022-08-19T11:33:19.997Z,15.98
2022-08-19T11:35:46.286Z,14.95
2022-08-19T11:38:12.581Z,14.90
2022-08-19T11:40:38.911Z,15.35
2022-08-19T11:43:05.372Z,14.77
2022-08-19T11:45:31.923Z,14.68
2022-08-19T11:47:58.233Z,15.38
2022-08-19T11:50:25.578Z,15.00
2022-08-19T11:52:54.941Z,16.23
2022-08-19T11:55:21.227Z,17.35
2022-08-19T11:57:47.666Z,16.13
2022-08-19T12:00:14.396Z,17.30
2022-08-19T12:02:40.913Z,15.98
2022-08-19T12:05:11.968Z,17.27
2022-08-19T12:07:39.049Z,16.92
2022-08-19T12:10:05.532Z,16.00
2022-08-19T12:12:31.819Z,15.65
2022-08-19T12:14:59.261Z,15.23
2022-08-19T12:17:26.783Z,17.73
2022-08-19T12:19:53.315Z,19.08
2022-08-19T12:22:21.613Z,20.13
2022-08-19T12:24:48.783Z,21.98
2022-08-19T12:27:15.095Z,23.35
2022-08-19T12:30:01.312Z,25.95
2022-08-19T12:32:27.693Z,24.60
2022-08-19T12:34:54.027Z,22.33
2022-08-19T12:37:21.412Z,20.20
2022-08-19T12:39:48.147Z,17.75
2022-08-19T12:42:15.148Z,14.30
2022-08-19T12:44:42.943Z,14.35
2022-08-19T12:47:10.011Z,15.95
2022-08-19T12:49:55.284Z,13.70
2022-08-19T12:52:23.730Z,14.45
2022-08-19T12:54:54.000Z,15.25
2022-08-19T12:57:31.475Z,11.77
2022-08-19T12:59:59.956Z,11.80
2022-08-19T13:02:27.290Z,9.88
2022-08-19T13:04:54.029Z,10.05
2022-08-19T13:07:20.305Z,9.95
2022-08-19T13:09:46.592Z,11.02
2022-08-19T13:12:14.287Z,10.93
2022-08-19T13:14:41.346Z,12.82
2022-08-19T13:17:09.217Z,13.82
2022-08-19T13:19:38.491Z,15.30
2022-08-19T13:22:04.898Z,16.42
2022-08-19T13:24:41.945Z,14.90
2022-08-19T13:27:13.057Z,16.17
2022-08-19T13:29:59.329Z,17.10
2022-08-19T13:32:44.124Z,17.92
2022-08-19T13:35:14.910Z,20.27
2022-08-19T13:37:43.162Z,19.48
2022-08-19T13:40:16.954Z,20.08
2022-08-19T13:42:44.665Z,19.85
2022-08-19T13:45:11.660Z,20.83
2022-08-19T13:47:43.434Z,20.23
2022-08-19T13:50:11.744Z,19.10
2022-08-19T13:52:39.197Z,14.13
2022-08-19T13:55:06.244Z,15.35
2022-08-19T13:57:36.714Z,13.82
2022-08-19T14:00:04.365Z,13.55
2022-08-19T14:02:30.660Z,13.90
2022-08-19T14:04:56.914Z,13.13
2022-08-19T14:07:25.273Z,13.68
2022-08-19T14:09:51.627Z,14.25
2022-08-19T14:12:28.230Z,14.38
2022-08-19T14:14:55.428Z,14.70
2022-08-19T14:17:22.364Z,14.48
2022-08-19T14:19:49.015Z,14.43
2022-08-19T14:22:15.364Z,13.73
2022-08-19T14:24:48.891Z,12.77
2022-08-19T14:27:15.677Z,14.43
2022-08-19T14:29:42.117Z,13.57
2022-08-19T14:32:08.445Z,13.02
2022-08-19T14:34:38.281Z,12.32
2022-08-19T14:37:04.650Z,10.82
2022-08-19T14:39:30.930Z,10.85
2022-08-19T14:42:00.024Z,9.07
2022-08-19T14:44:28.087Z,9.10
2022-08-19T14:46:55.920Z,8.07
2022-08-19T14:49:29.751Z,7.72
2022-08-19T14:52:01.957Z,8.00
2022-08-19T14:54:28.309Z,7.43
2022-08-19T14:56:57.070Z,7.65
2022-08-19T14:59:23.388Z,7.47
2022-08-19T15:01:50.125Z,7.93
2022-08-19T15:04:17.557Z,6.80
2022-08-19T15:06:45.008Z,7.35
2022-08-19T15:09:11.718Z,7.50
2022-08-19T15:11:39.320Z,6.78
2022-08-19T15:14:06.377Z,6.60
2022-08-19T15:16:33.135Z,7.47
2022-08-19T15:19:00.903Z,13.95
2022-08-19T15:21:28.004Z,15.50
2022-08-19T15:23:55.380Z,8.88
2022-08-19T15:26:22.142Z,17.85
2022-08-19T15:28:48.646Z,14.50
2022-08-19T15:31:25.173Z,8.98
2022-08-19T15:33:52.156Z,6.93
2022-08-19T15:36:18.908Z,5.78
2022-08-19T15:38:46.191Z,6.22
2022-08-19T15:41:25.683Z,5.70
2022-08-19T15:43:56.839Z,5.85
2022-08-19T15:46:24.731Z,5.75
2022-08-19T15:48:57.426Z,5.78
2022-08-19T15:51:27.133Z,5.50
2022-08-19T15:53:53.525Z,38.83
2022-08-19T15:56:19.807Z,9.45
2022-08-19T15:59:04.724Z,12.23
2022-08-19T16:01:31.251Z,6.70
2022-08-19T16:04:19.779Z,4.43
2022-08-19T16:06:47.794Z,5.15
2022-08-19T16:09:15.448Z,5.20
2022-08-19T16:11:45.569Z,4.18
2022-08-19T16:14:12.916Z,3.80
2022-08-19T16:16:39.432Z,3.70
2022-08-19T16:19:10.586Z,3.35
2022-08-19T16:21:41.624Z,3.70
2022-08-19T16:24:08.838Z,3.50
2022-08-19T16:26:35.159Z,3.22
2022-08-19T16:29:02.111Z,3.17
2022-08-19T16:31:28.831Z,3.28
2022-08-19T16:33:55.613Z,3.90
2022-08-19T16:36:24.144Z,3.75
2022-08-19T16:38:51.835Z,3.90
2022-08-19T16:41:18.451Z,3.95
2022-08-19T16:43:44.951Z,3.95
2022-08-19T16:46:11.443Z,3.90
2022-08-19T16:48:45.232Z,4.05
2022-08-19T16:51:12.977Z,5.25
2022-08-19T16:53:40.390Z,5.22
2022-08-19T16:56:07.321Z,5.50
2022-08-19T16:58:34.032Z,5.75
2022-08-19T17:01:04.235Z,5.38
2022-08-19T17:03:35.930Z,5.20
2022-08-19T17:06:03.882Z,5.28
2022-08-19T17:08:31.473Z,6.03
2022-08-19T17:11:17.224Z,5.72
2022-08-19T17:16:10.708Z,5.85
2022-08-19T17:18:37.284Z,5.53
2022-08-19T17:21:03.614Z,6.20
2022-08-19T17:23:42.142Z,6.32
2022-08-19T17:26:16.774Z,6.38
2022-08-19T17:28:45.715Z,6.00
2022-08-19T17:31:12.083Z,5.65
2022-08-19T17:33:41.225Z,5.72
2022-08-19T17:36:08.080Z,5.68
2022-08-19T17:38:35.739Z,6.10
2022-08-19T17:41:05.215Z,6.07
2022-08-19T17:43:38.904Z,5.47
2022-08-19T17:46:11.069Z,6.32
2022-08-19T17:48:40.515Z,6.10
2022-08-19T17:51:16.088Z,4.93
2022-08-19T17:53:42.406Z,5.18
2022-08-19T17:56:08.805Z,4.78
2022-08-19T17:58:35.073Z,4.90
2022-08-19T18:01:02.679Z,5.40
2022-08-19T18:03:30.241Z,5.05
2022-08-19T18:05:57.120Z,5.40
2022-08-19T18:08:23.694Z,5.82
2022-08-19T18:10:50.024Z,5.22
2022-08-19T18:13:17.718Z,5.10
2022-08-19T18:15:44.557Z,5.50
2022-08-19T18:18:15.565Z,5.55
2022-08-19T18:20:42.440Z,5.05
2022-08-19T18:23:43.934Z,4.40
2022-08-19T18:25:55.581Z,3.40
2022-08-19T18:28:24.567Z,3.70
2022-08-19T18:30:50.836Z,3.35
2022-08-19T18:33:17.251Z,2.75
2022-08-19T18:35:45.911Z,2.60
2022-08-19T18:38:34.936Z,2.20
2022-08-19T18:41:20.643Z,2.15
2022-08-19T18:44:06.055Z,2.15
2022-08-19T18:46:51.491Z,2.08
2022-08-19T18:49:28.821Z,2.50
2022-08-19T18:51:58.570Z,2.60
2022-08-19T18:54:26.189Z,2.33
2022-08-19T18:56:55.608Z,2.17
2022-08-19T18:59:23.144Z,2.30
2022-08-19T19:01:52.873Z,2.17
2022-08-19T19:04:20.506Z,2.42
2022-08-19T19:06:53.720Z,2.40
2022-08-19T19:09:21.832Z,2.42
2022-08-19T19:11:50.886Z,2.97
2022-08-19T19:14:39.045Z,2.78
2022-08-19T19:17:08.501Z,2.58
2022-08-19T19:19:34.994Z,2.83
2022-08-19T19:22:02.615Z,3.15
2022-08-19T19:24:30.723Z,2.75
2022-08-19T19:26:57.840Z,3.03
2022-08-19T19:29:24.209Z,3.78
2022-08-19T19:31:53.883Z,3.10
2022-08-19T19:34:29.814Z,3.55
2022-08-19T19:36:56.728Z,3.55
2022-08-19T19:39:30.688Z,3.22
2022-08-19T19:42:12.583Z,3.33
2022-08-19T19:44:49.305Z,3.30
2022-08-19T19:47:16.004Z,3.00
2022-08-19T19:50:03.798Z,3.22
2022-08-19T19:52:28.587Z,3.05
2022-08-19T19:54:56.660Z,3.28
2022-08-19T19:57:26.722Z,3.22
2022-08-19T19:59:54.084Z,3.00
2022-08-19T20:02:21.774Z,3.38
2022-08-19T20:04:48.746Z,3.70
2022-08-19T20:07:15.261Z,3.25
2022-08-19T20:09:58.813Z,2.78
2022-08-19T20:12:25.817Z,3.28
2022-08-19T20:14:52.100Z,3.22
2022-08-19T20:17:20.329Z,3.60
2022-08-19T20:19:47.693Z,3.33
2022-08-19T20:22:16.465Z,3.33
2022-08-19T20:24:44.871Z,3.50
2022-08-19T20:27:11.465Z,3.70
2022-08-19T20:29:41.367Z,3.42
2022-08-19T20:32:09.089Z,3.53
2022-08-19T20:34:36.394Z,3.90
2022-08-19T20:37:03.062Z,3.80
2022-08-19T20:39:30.873Z,3.95
2022-08-19T20:41:57.181Z,3.63
2022-08-19T20:44:25.214Z,3.97
2022-08-19T20:46:54.781Z,4.40
2022-08-19T20:49:22.964Z,4.55
2022-08-19T20:51:54.431Z,4.78
2022-08-19T20:54:20.697Z,5.10
2022-08-19T20:56:46.976Z,4.60
2022-08-19T20:59:13.239Z,5.13
2022-08-19T21:01:39.694Z,5.30
2022-08-19T21:04:06.087Z,6.20
2022-08-19T21:06:32.362Z,5.95
2022-08-19T21:08:58.623Z,5.60
2022-08-19T21:11:24.898Z,6.28
2022-08-19T21:13:51.217Z,6.35
2022-08-19T21:16:17.480Z,6.18
2022-08-19T21:18:44.660Z,6.70
2022-08-19T21:21:10.990Z,6.50
2022-08-19T21:23:37.283Z,6.43
2022-08-19T21:26:03.610Z,6.60
2022-08-19T21:28:36.180Z,6.75
2022-08-19T21:31:03.936Z,6.15
2022-08-19T21:33:33.182Z,6.35
2022-08-19T21:36:00.051Z,6.15
2022-08-19T21:38:26.852Z,6.13
2022-08-19T21:40:53.182Z,6.85
2022-08-19T21:43:19.559Z,7.13
2022-08-19T21:45:46.797Z,7.28
2022-08-19T21:48:14.579Z,6.85
2022-08-19T21:50:41.779Z,6.85
2022-08-19T21:53:08.084Z,7.00
2022-08-19T21:55:38.165Z,6.88
2022-08-19T21:58:04.582Z,7.53
2022-08-19T22:00:32.292Z,6.90
2022-08-19T22:02:58.629Z,8.30
2022-08-19T22:05:25.640Z,6.43
2022-08-19T22:07:52.543Z,7.15
2022-08-19T22:10:19.430Z,7.63
2022-08-19T22:12:51.437Z,7.32
2022-08-19T22:15:20.440Z,7.03
2022-08-19T22:17:47.104Z,7.10
2022-08-19T22:20:15.060Z,7.85
2022-08-19T22:22:49.024Z,8.82
2022-08-19T22:25:31.334Z,7.93
2022-08-19T22:28:00.484Z,8.43
2022-08-19T22:30:27.252Z,8.52
2022-08-19T22:33:01.078Z,8.88
2022-08-19T22:35:31.257Z,8.52
2022-08-19T22:37:58.819Z,9.50
2022-08-19T22:40:25.845Z,9.77
2022-08-19T22:43:00.100Z,8.75
2022-08-19T22:45:27.025Z,9.27
2022-08-19T22:47:53.321Z,9.73
2022-08-19T22:50:19.711Z,8.93
2022-08-19T22:52:51.847Z,8.77
2022-08-19T22:55:18.369Z,8.40
2022-08-19T22:57:44.626Z,8.93
2022-08-19T23:00:12.857Z,9.05
2022-08-19T23:02:51.738Z,9.27
2022-08-19T23:05:20.884Z,9.43
2022-08-19T23:07:52.141Z,9.48
2022-08-19T23:10:27.080Z,9.10
2022-08-19T23:12:54.993Z,9.13
2022-08-19T23:15:24.158Z,9.32
2022-08-19T23:17:50.792Z,9.52
2022-08-19T23:20:17.476Z,9.20
2022-08-19T23:22:46.498Z,9.30
2022-08-19T23:25:15.985Z,8.60
2022-08-19T23:28:01.376Z,9.23
2022-08-19T23:30:28.152Z,9.23
2022-08-19T23:32:58.511Z,9.32
2022-08-19T23:35:25.643Z,9.60
2022-08-19T23:37:52.128Z,9.95
2022-08-19T23:40:21.222Z,8.77
2022-08-19T23:42:48.316Z,8.75
2022-08-19T23:45:15.191Z,8.77
2022-08-19T23:47:49.301Z,9.80
2022-08-19T23:50:15.652Z,9.88
2022-08-19T23:52:43.741Z,9.23
2022-08-19T23:55:10.590Z,9.27
2022-08-19T23:57:36.890Z,9.38
